sensor_id;sensor_type;location;lat;lon;timestamp;pressure;altitude;pressure_sealevel;temperature;humidity
7157;BME280;3620;49.862;8.758;2023-01-16T00:00:13;97882.06;;;7.20;87.93
7157;BME280;3620;49.862;8.758;2023-01-16T00:02:40;97869.91;;;7.19;88.88
7157;BME280;3620;49.862;8.758;2023-01-16T00:05:07;97864.84;;;7.16;88.52
7157;BME280;3620;49.862;8.758;2023-01-16T00:07:35;97862.94;;;6.87;88.00
7157;BME280;3620;49.862;8.758;2023-01-16T00:10:01;97855.84;;;6.89;87.67
7157;BME280;3620;49.862;8.758;2023-01-16T00:12:28;97849.84;;;7.04;87.53
7157;BME280;3620;49.862;8.758;2023-01-16T00:14:54;97851.66;;;7.02;88.01
7157;BME280;3620;49.862;8.758;2023-01-16T00:17:21;97843.81;;;7.02;88.18
7157;BME280;3620;49.862;8.758;2023-01-16T00:19:47;97853.44;;;7.02;87.85
7157;BME280;3620;49.862;8.758;2023-01-16T00:22:14;97844.91;;;6.98;88.48
7157;BME280;3620;49.862;8.758;2023-01-16T00:24:41;97829.41;;;6.95;88.27
7157;BME280;3620;49.862;8.758;2023-01-16T00:27:08;97827.38;;;7.00;87.89
7157;BME280;3620;49.862;8.758;2023-01-16T00:29:34;97826.81;;;6.95;87.66
7157;BME280;3620;49.862;8.758;2023-01-16T00:32:01;97825.09;;;6.94;87.73
7157;BME280;3620;49.862;8.758;2023-01-16T00:34:27;97816.84;;;6.86;88.12
7157;BME280;3620;49.862;8.758;2023-01-16T00:36:54;97811.88;;;6.97;87.77
7157;BME280;3620;49.862;8.758;2023-01-16T00:39:20;97798.63;;;7.00;87.67
7157;BME280;3620;49.862;8.758;2023-01-16T00:41:48;97788.50;;;6.94;88.38
7157;BME280;3620;49.862;8.758;2023-01-16T00:44:15;97780.31;;;7.00;88.17
7157;BME280;3620;49.862;8.758;2023-01-16T00:46:41;97779.91;;;6.92;87.59
7157;BME280;3620;49.862;8.758;2023-01-16T00:49:08;97791.78;;;6.82;88.17
7157;BME280;3620;49.862;8.758;2023-01-16T00:51:34;97775.03;;;6.86;88.12
7157;BME280;3620;49.862;8.758;2023-01-16T00:54:01;97768.16;;;6.68;88.65
7157;BME280;3620;49.862;8.758;2023-01-16T00:56:27;97755.25;;;6.65;88.18
7157;BME280;3620;49.862;8.758;2023-01-16T00:58:55;97750.28;;;6.76;88.06
7157;BME280;3620;49.862;8.758;2023-01-16T01:01:21;97749.81;;;6.85;87.45
7157;BME280;3620;49.862;8.758;2023-01-16T01:03:48;97750.25;;;6.93;87.36
7157;BME280;3620;49.862;8.758;2023-01-16T01:06:14;97753.84;;;6.75;87.37
7157;BME280;3620;49.862;8.758;2023-01-16T01:08:41;97750.47;;;6.73;87.63
7157;BME280;3620;49.862;8.758;2023-01-16T01:11:08;97750.97;;;6.64;87.84
7157;BME280;3620;49.862;8.758;2023-01-16T01:13:35;97745.56;;;6.67;88.18
7157;BME280;3620;49.862;8.758;2023-01-16T01:16:03;97733.59;;;6.63;88.32
7157;BME280;3620;49.862;8.758;2023-01-16T01:18:30;97734.97;;;6.70;88.16
7157;BME280;3620;49.862;8.758;2023-01-16T01:20:56;97725.59;;;6.66;87.78
7157;BME280;3620;49.862;8.758;2023-01-16T01:23:23;97714.41;;;6.80;87.24
7157;BME280;3620;49.862;8.758;2023-01-16T01:25:50;97719.28;;;6.70;87.35
7157;BME280;3620;49.862;8.758;2023-01-16T01:28:17;97720.16;;;6.86;86.43
7157;BME280;3620;49.862;8.758;2023-01-16T01:30:44;97708.19;;;6.82;87.06
7157;BME280;3620;49.862;8.758;2023-01-16T01:33:12;97712.84;;;6.60;87.84
7157;BME280;3620;49.862;8.758;2023-01-16T01:35:39;97705.63;;;6.81;87.60
7157;BME280;3620;49.862;8.758;2023-01-16T01:38:05;97705.47;;;6.68;87.52
7157;BME280;3620;49.862;8.758;2023-01-16T01:40:33;97706.63;;;6.78;87.64
7157;BME280;3620;49.862;8.758;2023-01-16T01:42:59;97703.94;;;6.64;87.37
7157;BME280;3620;49.862;8.758;2023-01-16T01:45:27;97695.50;;;6.59;86.73
7157;BME280;3620;49.862;8.758;2023-01-16T01:47:56;97694.41;;;6.63;87.56
7157;BME280;3620;49.862;8.758;2023-01-16T01:50:35;97685.41;;;6.84;86.96
7157;BME280;3620;49.862;8.758;2023-01-16T01:53:08;97677.72;;;6.81;86.95
7157;BME280;3620;49.862;8.758;2023-01-16T01:55:38;97661.16;;;6.67;86.77
7157;BME280;3620;49.862;8.758;2023-01-16T01:58:06;97656.44;;;6.73;87.23
7157;BME280;3620;49.862;8.758;2023-01-16T02:00:33;97656.44;;;6.73;86.87
7157;BME280;3620;49.862;8.758;2023-01-16T02:03:05;97642.41;;;6.74;86.67
7157;BME280;3620;49.862;8.758;2023-01-16T02:05:36;97646.97;;;6.55;88.04
7157;BME280;3620;49.862;8.758;2023-01-16T02:08:04;97639.03;;;6.56;88.24
7157;BME280;3620;49.862;8.758;2023-01-16T02:10:36;97643.13;;;6.62;87.65
7157;BME280;3620;49.862;8.758;2023-01-16T02:13:04;97643.63;;;6.53;87.98
7157;BME280;3620;49.862;8.758;2023-01-16T02:15:31;97629.44;;;6.57;87.16
7157;BME280;3620;49.862;8.758;2023-01-16T02:17:58;97628.84;;;6.52;87.86
7157;BME280;3620;49.862;8.758;2023-01-16T02:20:51;97620.50;;;6.61;88.13
7157;BME280;3620;49.862;8.758;2023-01-16T02:32:26;97584.78;;;6.77;86.65
7157;BME280;3620;49.862;8.758;2023-01-16T02:35:10;97581.56;;;6.72;86.80
7157;BME280;3620;49.862;8.758;2023-01-16T02:37:44;97566.25;;;6.66;87.10
7157;BME280;3620;49.862;8.758;2023-01-16T02:40:21;97556.28;;;6.73;86.98
7157;BME280;3620;49.862;8.758;2023-01-16T02:43:03;97552.44;;;6.64;86.99
7157;BME280;3620;49.862;8.758;2023-01-16T02:45:41;97545.34;;;6.66;87.00
7157;BME280;3620;49.862;8.758;2023-01-16T02:48:12;97546.84;;;6.70;86.65
7157;BME280;3620;49.862;8.758;2023-01-16T02:50:49;97539.19;;;6.67;86.52
7157;BME280;3620;49.862;8.758;2023-01-16T02:53:21;97525.88;;;6.56;86.05
7157;BME280;3620;49.862;8.758;2023-01-16T02:55:52;97516.03;;;6.61;86.74
7157;BME280;3620;49.862;8.758;2023-01-16T02:58:21;97503.88;;;6.60;86.33
7157;BME280;3620;49.862;8.758;2023-01-16T03:00:49;97500.69;;;6.71;86.25
7157;BME280;3620;49.862;8.758;2023-01-16T03:03:34;97486.03;;;6.68;86.42
7157;BME280;3620;49.862;8.758;2023-01-16T03:06:11;97485.81;;;6.57;86.35
7157;BME280;3620;49.862;8.758;2023-01-16T03:08:44;97474.94;;;6.49;86.19
7157;BME280;3620;49.862;8.758;2023-01-16T03:11:19;97470.34;;;6.68;85.82
7157;BME280;3620;49.862;8.758;2023-01-16T03:14:11;97465.66;;;6.59;85.63
7157;BME280;3620;49.862;8.758;2023-01-16T03:16:51;97464.19;;;6.69;85.39
7157;BME280;3620;49.862;8.758;2023-01-16T03:19:29;97460.69;;;6.54;85.34
7157;BME280;3620;49.862;8.758;2023-01-16T03:22:08;97452.72;;;6.42;85.11
7157;BME280;3620;49.862;8.758;2023-01-16T03:24:46;97447.28;;;6.60;85.01
7157;BME280;3620;49.862;8.758;2023-01-16T03:27:24;97436.97;;;6.73;84.33
7157;BME280;3620;49.862;8.758;2023-01-16T03:29:59;97435.09;;;6.75;84.00
7157;BME280;3620;49.862;8.758;2023-01-16T03:32:35;97431.94;;;6.84;83.47
7157;BME280;3620;49.862;8.758;2023-01-16T03:35:07;97426.69;;;6.70;84.40
7157;BME280;3620;49.862;8.758;2023-01-16T03:37:37;97419.22;;;6.78;84.25
7157;BME280;3620;49.862;8.758;2023-01-16T03:40:09;97416.59;;;6.64;83.64
7157;BME280;3620;49.862;8.758;2023-01-16T03:42:39;97411.00;;;6.70;84.58
7157;BME280;3620;49.862;8.758;2023-01-16T03:45:11;97410.97;;;6.42;83.98
7157;BME280;3620;49.862;8.758;2023-01-16T03:47:43;97414.66;;;6.38;83.94
7157;BME280;3620;49.862;8.758;2023-01-16T03:50:17;97422.44;;;6.24;84.18
7157;BME280;3620;49.862;8.758;2023-01-16T03:52:49;97411.13;;;6.39;83.71
7157;BME280;3620;49.862;8.758;2023-01-16T03:55:22;97398.97;;;6.38;83.91
7157;BME280;3620;49.862;8.758;2023-01-16T03:57:53;97389.44;;;6.23;85.00
7157;BME280;3620;49.862;8.758;2023-01-16T04:00:21;97382.72;;;6.19;84.67
7157;BME280;3620;49.862;8.758;2023-01-16T04:02:54;97373.38;;;6.15;85.57
7157;BME280;3620;49.862;8.758;2023-01-16T04:05:27;97372.44;;;6.16;85.32
7157;BME280;3620;49.862;8.758;2023-01-16T04:07:57;97366.63;;;6.26;84.73
7157;BME280;3620;49.862;8.758;2023-01-16T04:10:28;97352.88;;;6.09;84.98
7157;BME280;3620;49.862;8.758;2023-01-16T04:12:57;97342.75;;;6.03;85.55
7157;BME280;3620;49.862;8.758;2023-01-16T04:15:27;97336.56;;;6.19;85.37
7157;BME280;3620;49.862;8.758;2023-01-16T04:17:55;97328.69;;;6.05;86.07
7157;BME280;3620;49.862;8.758;2023-01-16T04:20:25;97329.28;;;6.10;85.50
7157;BME280;3620;49.862;8.758;2023-01-16T04:22:52;97331.56;;;6.01;85.22
7157;BME280;3620;49.862;8.758;2023-01-16T04:25:19;97319.59;;;6.12;85.13
7157;BME280;3620;49.862;8.758;2023-01-16T04:27:45;97317.94;;;5.96;85.23
7157;BME280;3620;49.862;8.758;2023-01-16T04:30:13;97313.56;;;5.96;85.34
7157;BME280;3620;49.862;8.758;2023-01-16T04:32:40;97305.47;;;5.86;85.34
7157;BME280;3620;49.862;8.758;2023-01-16T04:35:08;97303.28;;;6.09;85.35
7157;BME280;3620;49.862;8.758;2023-01-16T04:37:36;97302.66;;;5.89;86.05
7157;BME280;3620;49.862;8.758;2023-01-16T04:40:03;97292.22;;;5.89;85.96
7157;BME280;3620;49.862;8.758;2023-01-16T04:42:29;97291.84;;;5.96;86.07
7157;BME280;3620;49.862;8.758;2023-01-16T04:44:56;97282.41;;;6.09;85.74
7157;BME280;3620;49.862;8.758;2023-01-16T04:47:22;97265.22;;;6.05;85.44
7157;BME280;3620;49.862;8.758;2023-01-16T04:49:49;97255.78;;;6.18;85.58
7157;BME280;3620;49.862;8.758;2023-01-16T04:52:15;97245.88;;;6.09;85.69
7157;BME280;3620;49.862;8.758;2023-01-16T04:54:43;97247.00;;;6.19;85.12
7157;BME280;3620;49.862;8.758;2023-01-16T04:57:09;97242.50;;;6.21;85.53
7157;BME280;3620;49.862;8.758;2023-01-16T04:59:36;97232.28;;;6.32;84.78
7157;BME280;3620;49.862;8.758;2023-01-16T05:02:02;97223.72;;;6.44;84.07
7157;BME280;3620;49.862;8.758;2023-01-16T05:04:29;97219.41;;;6.29;84.80
7157;BME280;3620;49.862;8.758;2023-01-16T05:06:56;97208.66;;;6.33;84.90
7157;BME280;3620;49.862;8.758;2023-01-16T05:09:22;97204.84;;;6.25;84.90
7157;BME280;3620;49.862;8.758;2023-01-16T05:11:50;97203.16;;;6.38;84.20
7157;BME280;3620;49.862;8.758;2023-01-16T05:14:19;97200.38;;;6.41;84.83
7157;BME280;3620;49.862;8.758;2023-01-16T05:16:46;97195.06;;;6.42;84.19
7157;BME280;3620;49.862;8.758;2023-01-16T05:19:12;97186.59;;;6.39;84.16
7157;BME280;3620;49.862;8.758;2023-01-16T05:21:39;97169.22;;;6.38;84.14
7157;BME280;3620;49.862;8.758;2023-01-16T05:24:05;97171.56;;;6.42;83.25
7157;BME280;3620;49.862;8.758;2023-01-16T05:26:32;97164.84;;;6.38;83.65
7157;BME280;3620;49.862;8.758;2023-01-16T05:29:00;97155.66;;;6.33;83.49
7157;BME280;3620;49.862;8.758;2023-01-16T05:31:27;97145.56;;;6.27;84.16
7157;BME280;3620;49.862;8.758;2023-01-16T05:33:53;97138.69;;;6.26;83.93
7157;BME280;3620;49.862;8.758;2023-01-16T05:36:20;97139.41;;;6.28;83.85
7157;BME280;3620;49.862;8.758;2023-01-16T05:38:46;97130.56;;;6.30;84.21
7157;BME280;3620;49.862;8.758;2023-01-16T05:41:13;97115.53;;;6.34;84.54
7157;BME280;3620;49.862;8.758;2023-01-16T05:43:39;97105.31;;;6.31;83.61
7157;BME280;3620;49.862;8.758;2023-01-16T05:46:07;97101.16;;;6.41;84.30
7157;BME280;3620;49.862;8.758;2023-01-16T05:48:34;97100.25;;;6.42;84.16
7157;BME280;3620;49.862;8.758;2023-01-16T05:51:03;97098.56;;;6.27;84.67
7157;BME280;3620;49.862;8.758;2023-01-16T05:53:29;97092.91;;;6.20;84.88
7157;BME280;3620;49.862;8.758;2023-01-16T05:55:56;97085.00;;;6.22;84.77
7157;BME280;3620;49.862;8.758;2023-01-16T05:58:23;97078.09;;;6.21;85.09
7157;BME280;3620;49.862;8.758;2023-01-16T06:00:50;97069.97;;;6.11;85.16
7157;BME280;3620;49.862;8.758;2023-01-16T06:03:17;97058.50;;;6.28;84.73
7157;BME280;3620;49.862;8.758;2023-01-16T06:05:46;97061.09;;;6.28;85.11
7157;BME280;3620;49.862;8.758;2023-01-16T06:08:12;97046.34;;;6.41;85.17
7157;BME280;3620;49.862;8.758;2023-01-16T06:10:39;97040.72;;;6.47;84.51
7157;BME280;3620;49.862;8.758;2023-01-16T06:13:05;97025.78;;;6.49;84.84
7157;BME280;3620;49.862;8.758;2023-01-16T06:15:32;97024.59;;;6.40;85.45
7157;BME280;3620;49.862;8.758;2023-01-16T06:17:58;97025.63;;;6.38;85.76
7157;BME280;3620;49.862;8.758;2023-01-16T06:20:26;97015.75;;;6.43;85.62
7157;BME280;3620;49.862;8.758;2023-01-16T06:22:52;97017.94;;;6.49;85.42
7157;BME280;3620;49.862;8.758;2023-01-16T06:25:19;97005.66;;;6.51;85.14
7157;BME280;3620;49.862;8.758;2023-01-16T06:27:49;97010.34;;;6.46;85.10
7157;BME280;3620;49.862;8.758;2023-01-16T06:30:16;97004.88;;;6.36;85.69
7157;BME280;3620;49.862;8.758;2023-01-16T06:32:43;97004.03;;;6.36;85.57
7157;BME280;3620;49.862;8.758;2023-01-16T06:35:10;96994.41;;;6.36;85.84
7157;BME280;3620;49.862;8.758;2023-01-16T06:37:38;96991.50;;;6.41;85.78
7157;BME280;3620;49.862;8.758;2023-01-16T06:40:05;96994.00;;;6.42;85.48
7157;BME280;3620;49.862;8.758;2023-01-16T06:42:32;96985.38;;;6.42;85.34
7157;BME280;3620;49.862;8.758;2023-01-16T06:44:59;96976.88;;;6.38;85.17
7157;BME280;3620;49.862;8.758;2023-01-16T06:47:25;96966.88;;;6.45;85.17
7157;BME280;3620;49.862;8.758;2023-01-16T06:49:52;96958.72;;;6.37;85.10
7157;BME280;3620;49.862;8.758;2023-01-16T06:52:19;96957.97;;;6.35;85.46
7157;BME280;3620;49.862;8.758;2023-01-16T06:54:47;96951.28;;;6.31;85.06
7157;BME280;3620;49.862;8.758;2023-01-16T06:57:13;96945.72;;;6.23;85.79
7157;BME280;3620;49.862;8.758;2023-01-16T06:59:40;96936.56;;;6.30;85.50
7157;BME280;3620;49.862;8.758;2023-01-16T07:02:08;96931.16;;;6.33;85.08
7157;BME280;3620;49.862;8.758;2023-01-16T07:04:34;96927.81;;;6.31;84.61
7157;BME280;3620;49.862;8.758;2023-01-16T07:07:01;96920.69;;;6.33;84.25
7157;BME280;3620;49.862;8.758;2023-01-16T07:09:28;96914.63;;;6.32;84.55
7157;BME280;3620;49.862;8.758;2023-01-16T07:11:56;96911.91;;;6.34;84.70
7157;BME280;3620;49.862;8.758;2023-01-16T07:14:23;96902.75;;;6.41;84.55
7157;BME280;3620;49.862;8.758;2023-01-16T07:17:08;96890.84;;;6.37;84.39
7157;BME280;3620;49.862;8.758;2023-01-16T07:19:52;96876.81;;;6.25;85.09
7157;BME280;3620;49.862;8.758;2023-01-16T07:22:36;96873.50;;;6.36;85.60
7157;BME280;3620;49.862;8.758;2023-01-16T07:25:07;96877.06;;;6.35;85.06
7157;BME280;3620;49.862;8.758;2023-01-16T07:27:36;96876.81;;;6.25;84.88
7157;BME280;3620;49.862;8.758;2023-01-16T07:30:04;96866.63;;;6.35;84.61
7157;BME280;3620;49.862;8.758;2023-01-16T07:32:31;96865.59;;;6.37;84.80
7157;BME280;3620;49.862;8.758;2023-01-16T07:34:58;96854.59;;;6.32;84.65
7157;BME280;3620;49.862;8.758;2023-01-16T07:37:24;96853.03;;;6.30;85.30
7157;BME280;3620;49.862;8.758;2023-01-16T07:39:51;96843.13;;;6.35;84.75
7157;BME280;3620;49.862;8.758;2023-01-16T07:42:17;96843.44;;;6.43;84.12
7157;BME280;3620;49.862;8.758;2023-01-16T07:44:45;96836.56;;;6.42;84.27
7157;BME280;3620;49.862;8.758;2023-01-16T07:47:11;96821.19;;;6.50;84.08
7157;BME280;3620;49.862;8.758;2023-01-16T07:49:39;96833.41;;;6.49;83.85
7157;BME280;3620;49.862;8.758;2023-01-16T07:52:05;96824.44;;;6.41;83.34
7157;BME280;3620;49.862;8.758;2023-01-16T07:54:32;96821.94;;;6.52;83.43
7157;BME280;3620;49.862;8.758;2023-01-16T07:57:01;96809.84;;;6.51;82.74
7157;BME280;3620;49.862;8.758;2023-01-16T07:59:27;96807.22;;;6.51;83.67
7157;BME280;3620;49.862;8.758;2023-01-16T08:01:55;96790.38;;;6.68;82.31
7157;BME280;3620;49.862;8.758;2023-01-16T08:04:21;96798.50;;;6.76;81.78
7157;BME280;3620;49.862;8.758;2023-01-16T08:06:48;96790.34;;;6.80;81.64
7157;BME280;3620;49.862;8.758;2023-01-16T08:09:14;96789.63;;;6.91;81.29
7157;BME280;3620;49.862;8.758;2023-01-16T08:11:41;96789.06;;;6.98;80.82
7157;BME280;3620;49.862;8.758;2023-01-16T08:14:12;96783.84;;;6.98;80.50
7157;BME280;3620;49.862;8.758;2023-01-16T08:16:39;96765.16;;;7.04;80.11
7157;BME280;3620;49.862;8.758;2023-01-16T08:19:07;96773.38;;;7.11;79.38
7157;BME280;3620;49.862;8.758;2023-01-16T08:21:33;96762.94;;;7.11;79.09
7157;BME280;3620;49.862;8.758;2023-01-16T08:24:00;96766.16;;;7.14;79.11
7157;BME280;3620;49.862;8.758;2023-01-16T08:26:26;96747.19;;;7.00;79.53
7157;BME280;3620;49.862;8.758;2023-01-16T08:28:53;96748.06;;;7.11;78.73
7157;BME280;3620;49.862;8.758;2023-01-16T08:31:19;96749.75;;;7.12;78.20
7157;BME280;3620;49.862;8.758;2023-01-16T08:33:48;96738.25;;;7.02;78.67
7157;BME280;3620;49.862;8.758;2023-01-16T08:36:16;96734.44;;;6.95;78.68
7157;BME280;3620;49.862;8.758;2023-01-16T08:38:45;96723.03;;;6.96;77.54
7157;BME280;3620;49.862;8.758;2023-01-16T08:41:12;96722.16;;;7.08;77.65
7157;BME280;3620;49.862;8.758;2023-01-16T08:43:52;96708.13;;;7.09;77.75
7157;BME280;3620;49.862;8.758;2023-01-16T08:46:36;96697.03;;;7.18;77.61
7157;BME280;3620;49.862;8.758;2023-01-16T08:49:20;96690.91;;;7.30;76.68
7157;BME280;3620;49.862;8.758;2023-01-16T08:52:06;96692.25;;;7.12;77.19
7157;BME280;3620;49.862;8.758;2023-01-16T08:54:33;96672.69;;;7.29;76.27
7157;BME280;3620;49.862;8.758;2023-01-16T08:56:59;96664.44;;;7.35;75.67
7157;BME280;3620;49.862;8.758;2023-01-16T08:59:26;96660.31;;;7.44;75.05
7157;BME280;3620;49.862;8.758;2023-01-16T09:01:58;96656.88;;;7.54;74.38
7157;BME280;3620;49.862;8.758;2023-01-16T09:04:25;96655.53;;;7.37;74.16
7157;BME280;3620;49.862;8.758;2023-01-16T09:06:51;96657.66;;;7.32;73.89
7157;BME280;3620;49.862;8.758;2023-01-16T09:09:20;96661.75;;;7.48;74.08
7157;BME280;3620;49.862;8.758;2023-01-16T09:11:53;96652.03;;;7.61;73.92
7157;BME280;3620;49.862;8.758;2023-01-16T09:14:42;96659.38;;;7.56;73.59
7157;BME280;3620;49.862;8.758;2023-01-16T09:17:09;96649.38;;;7.50;73.79
7157;BME280;3620;49.862;8.758;2023-01-16T09:19:36;96645.81;;;7.51;73.40
7157;BME280;3620;49.862;8.758;2023-01-16T09:22:03;96640.72;;;7.60;73.29
7157;BME280;3620;49.862;8.758;2023-01-16T09:24:32;96634.91;;;7.57;73.29
7157;BME280;3620;49.862;8.758;2023-01-16T09:26:59;96627.72;;;7.36;74.24
7157;BME280;3620;49.862;8.758;2023-01-16T09:29:25;96641.97;;;7.32;74.62
7157;BME280;3620;49.862;8.758;2023-01-16T09:31:52;96649.09;;;7.30;75.82
7157;BME280;3620;49.862;8.758;2023-01-16T09:34:19;96645.66;;;7.41;75.48
7157;BME280;3620;49.862;8.758;2023-01-16T09:36:45;96638.19;;;7.48;75.37
7157;BME280;3620;49.862;8.758;2023-01-16T09:39:12;96645.16;;;7.60;75.11
7157;BME280;3620;49.862;8.758;2023-01-16T09:41:48;96643.16;;;7.74;75.03
7157;BME280;3620;49.862;8.758;2023-01-16T09:44:35;96638.28;;;7.81;73.73
7157;BME280;3620;49.862;8.758;2023-01-16T09:47:02;96630.44;;;7.92;73.77
7157;BME280;3620;49.862;8.758;2023-01-16T09:49:32;96622.13;;;7.98;74.11
7157;BME280;3620;49.862;8.758;2023-01-16T09:52:04;96612.34;;;8.00;74.63
7157;BME280;3620;49.862;8.758;2023-01-16T09:54:52;96605.25;;;8.02;73.64
7157;BME280;3620;49.862;8.758;2023-01-16T09:57:40;96606.91;;;7.92;73.78
7157;BME280;3620;49.862;8.758;2023-01-16T10:00:29;96602.63;;;7.91;74.23
7157;BME280;3620;49.862;8.758;2023-01-16T10:02:57;96606.91;;;7.92;74.23
7157;BME280;3620;49.862;8.758;2023-01-16T10:05:30;96607.59;;;7.94;74.76
7157;BME280;3620;49.862;8.758;2023-01-16T10:08:03;96597.38;;;7.69;75.76
7157;BME280;3620;49.862;8.758;2023-01-16T10:10:42;96593.06;;;7.68;75.72
7157;BME280;3620;49.862;8.758;2023-01-16T10:13:31;96575.59;;;7.68;75.73
7157;BME280;3620;49.862;8.758;2023-01-16T10:16:04;96574.75;;;7.57;76.13
7157;BME280;3620;49.862;8.758;2023-01-16T10:18:44;96574.53;;;7.71;76.19
7157;BME280;3620;49.862;8.758;2023-01-16T10:21:31;96563.09;;;7.72;76.77
7157;BME280;3620;49.862;8.758;2023-01-16T10:24:10;96566.19;;;7.66;76.15
7157;BME280;3620;49.862;8.758;2023-01-16T10:26:54;96555.97;;;7.63;76.05
7157;BME280;3620;49.862;8.758;2023-01-16T10:29:26;96559.91;;;7.57;76.76
7157;BME280;3620;49.862;8.758;2023-01-16T10:31:58;96543.13;;;7.60;76.79
7157;BME280;3620;49.862;8.758;2023-01-16T10:34:39;96545.28;;;7.66;77.81
7157;BME280;3620;49.862;8.758;2023-01-16T10:37:08;96543.59;;;7.65;79.11
7157;BME280;3620;49.862;8.758;2023-01-16T10:39:36;96545.16;;;7.78;79.04
7157;BME280;3620;49.862;8.758;2023-01-16T10:42:11;96543.84;;;7.62;79.63
7157;BME280;3620;49.862;8.758;2023-01-16T10:45:08;96536.72;;;7.64;80.94
7157;BME280;3620;49.862;8.758;2023-01-16T10:47:54;96528.38;;;7.59;82.28
7157;BME280;3620;49.862;8.758;2023-01-16T10:50:39;96527.31;;;7.50;82.75
7157;BME280;3620;49.862;8.758;2023-01-16T10:53:07;96524.84;;;7.60;83.19
7157;BME280;3620;49.862;8.758;2023-01-16T10:55:35;96517.44;;;7.65;83.53
7157;BME280;3620;49.862;8.758;2023-01-16T10:58:06;96511.75;;;7.71;84.29
7157;BME280;3620;49.862;8.758;2023-01-16T11:00:38;96505.06;;;7.56;84.95
7157;BME280;3620;49.862;8.758;2023-01-16T11:03:10;96507.22;;;7.62;85.94
7157;BME280;3620;49.862;8.758;2023-01-16T11:05:40;96497.00;;;7.70;85.15
7157;BME280;3620;49.862;8.758;2023-01-16T11:08:11;96492.25;;;7.75;86.33
7157;BME280;3620;49.862;8.758;2023-01-16T11:10:40;96491.75;;;7.81;85.80
7157;BME280;3620;49.862;8.758;2023-01-16T11:13:13;96479.38;;;7.83;85.22
7157;BME280;3620;49.862;8.758;2023-01-16T11:16:04;96479.03;;;7.54;85.91
7157;BME280;3620;49.862;8.758;2023-01-16T11:18:52;96467.88;;;7.63;85.99
7157;BME280;3620;49.862;8.758;2023-01-16T11:21:23;96460.38;;;7.59;85.96
7157;BME280;3620;49.862;8.758;2023-01-16T11:23:57;96455.00;;;7.71;86.34
7157;BME280;3620;49.862;8.758;2023-01-16T11:26:25;96442.75;;;7.83;85.96
7157;BME280;3620;49.862;8.758;2023-01-16T11:28:53;96440.03;;;7.84;85.90
7157;BME280;3620;49.862;8.758;2023-01-16T11:31:24;96434.88;;;7.94;85.30
7157;BME280;3620;49.862;8.758;2023-01-16T11:33:53;96426.53;;;8.00;86.24
7157;BME280;3620;49.862;8.758;2023-01-16T11:36:25;96411.22;;;8.06;85.71
7157;BME280;3620;49.862;8.758;2023-01-16T11:38:52;96399.94;;;7.95;84.76
7157;BME280;3620;49.862;8.758;2023-01-16T11:41:26;96390.38;;;8.05;85.45
7157;BME280;3620;49.862;8.758;2023-01-16T11:44:13;96374.56;;;8.06;85.25
7157;BME280;3620;49.862;8.758;2023-01-16T11:46:59;96368.19;;;8.20;84.65
7157;BME280;3620;49.862;8.758;2023-01-16T11:49:28;96365.56;;;8.20;83.98
7157;BME280;3620;49.862;8.758;2023-01-16T11:51:58;96359.63;;;8.18;84.84
7157;BME280;3620;49.862;8.758;2023-01-16T11:54:30;96350.81;;;8.19;84.49
7157;BME280;3620;49.862;8.758;2023-01-16T11:57:21;96349.41;;;8.26;84.18
7157;BME280;3620;49.862;8.758;2023-01-16T12:00:20;96321.09;;;8.09;83.37
7157;BME280;3620;49.862;8.758;2023-01-16T12:03:11;96309.16;;;8.27;83.79
7157;BME280;3620;49.862;8.758;2023-01-16T12:05:50;96303.44;;;8.33;82.76
7157;BME280;3620;49.862;8.758;2023-01-16T12:08:47;96293.38;;;8.38;83.16
7157;BME280;3620;49.862;8.758;2023-01-16T12:11:25;96292.06;;;8.12;84.26
7157;BME280;3620;49.862;8.758;2023-01-16T12:13:59;96272.28;;;8.19;83.84
7157;BME280;3620;49.862;8.758;2023-01-16T12:16:54;96276.44;;;8.42;81.96
7157;BME280;3620;49.862;8.758;2023-01-16T12:19:46;96273.81;;;8.42;81.99
7157;BME280;3620;49.862;8.758;2023-01-16T12:22:24;96267.13;;;8.49;81.53
7157;BME280;3620;49.862;8.758;2023-01-16T12:24:59;96264.88;;;8.65;80.56
7157;BME280;3620;49.862;8.758;2023-01-16T12:27:40;96244.69;;;8.56;81.24
7157;BME280;3620;49.862;8.758;2023-01-16T12:30:21;96241.47;;;8.43;82.30
7157;BME280;3620;49.862;8.758;2023-01-16T12:32:57;96217.28;;;8.60;82.26
7157;BME280;3620;49.862;8.758;2023-01-16T12:35:34;96210.16;;;8.72;81.60
7157;BME280;3620;49.862;8.758;2023-01-16T12:38:12;96213.00;;;8.59;79.55
7157;BME280;3620;49.862;8.758;2023-01-16T12:40:52;96209.06;;;8.74;79.62
7157;BME280;3620;49.862;8.758;2023-01-16T12:43:51;96200.94;;;8.77;80.16
7157;BME280;3620;49.862;8.758;2023-01-16T12:46:29;96186.31;;;8.84;79.39
7157;BME280;3620;49.862;8.758;2023-01-16T12:49:06;96178.34;;;8.96;79.23
7157;BME280;3620;49.862;8.758;2023-01-16T12:51:45;96173.66;;;8.90;78.84
7157;BME280;3620;49.862;8.758;2023-01-16T12:54:29;96160.16;;;8.94;77.63
7157;BME280;3620;49.862;8.758;2023-01-16T12:57:12;96152.13;;;8.96;76.61
7157;BME280;3620;49.862;8.758;2023-01-16T12:59:46;96146.22;;;8.94;77.00
7157;BME280;3620;49.862;8.758;2023-01-16T13:02:21;96131.03;;;8.88;76.29
7157;BME280;3620;49.862;8.758;2023-01-16T13:04:51;96128.69;;;8.75;75.55
7157;BME280;3620;49.862;8.758;2023-01-16T13:07:21;96116.53;;;8.83;75.51
7157;BME280;3620;49.862;8.758;2023-01-16T13:09:51;96115.72;;;8.83;75.52
7157;BME280;3620;49.862;8.758;2023-01-16T13:12:41;96085.25;;;8.92;76.53
7157;BME280;3620;49.862;8.758;2023-01-16T13:15:28;96090.47;;;8.72;74.24
7157;BME280;3620;49.862;8.758;2023-01-16T13:17:58;96094.47;;;8.96;73.80
7157;BME280;3620;49.862;8.758;2023-01-16T13:20:29;96085.41;;;9.19;74.53
7157;BME280;3620;49.862;8.758;2023-01-16T13:23:01;96082.63;;;9.30;72.36
7157;BME280;3620;49.862;8.758;2023-01-16T13:25:31;96077.81;;;9.35;71.15
7157;BME280;3620;49.862;8.758;2023-01-16T13:28:02;96073.25;;;9.37;71.92
7157;BME280;3620;49.862;8.758;2023-01-16T13:30:31;96070.06;;;9.43;71.02
7157;BME280;3620;49.862;8.758;2023-01-16T13:32:59;96060.53;;;9.42;69.20
7157;BME280;3620;49.862;8.758;2023-01-16T13:35:33;96050.31;;;9.29;69.26
7157;BME280;3620;49.862;8.758;2023-01-16T13:41:20;96045.34;;;9.36;69.69
7157;BME280;3620;49.862;8.758;2023-01-16T13:43:54;96045.06;;;9.39;69.71
7157;BME280;3620;49.862;8.758;2023-01-16T13:46:40;96048.81;;;9.36;69.57
7157;BME280;3620;49.862;8.758;2023-01-16T13:49:07;96037.38;;;9.28;69.43
7157;BME280;3620;49.862;8.758;2023-01-16T13:51:41;96034.75;;;9.37;69.40
7157;BME280;3620;49.862;8.758;2023-01-16T13:54:14;96039.56;;;9.32;70.51
7157;BME280;3620;49.862;8.758;2023-01-16T13:56:43;96020.94;;;9.35;70.14
7157;BME280;3620;49.862;8.758;2023-01-16T13:59:26;96019.09;;;9.45;69.12
7157;BME280;3620;49.862;8.758;2023-01-16T14:01:55;96020.94;;;9.26;69.70
7157;BME280;3620;49.862;8.758;2023-01-16T14:04:31;96017.91;;;9.21;69.50
7157;BME280;3620;49.862;8.758;2023-01-16T14:06:59;96010.28;;;9.37;70.34